M I D A S
Marine Information and Data Acquisition System
Tripno 1100 of the Zeeleeuw from 2006-05-08 07:10:12 to 2006-05-08 14:33:40
Back to CruiseResearch ActivitiesStationsMapUnderway DataData graphs

EquipmentUnitsComment
TimeDGPSUTC
LatitudeDGPSDM.mWGS84
LongitudeDGPSDM.mWGS84
HeadingGyrodeg 
SOGDGPSknotsSpeed over ground
COGDGPSdegCourse over ground
DepthEcho soundermeters200 kHz
Missing or incorrect values are displayed as -999
Navigation data collected by the RV Zeeleeuw from 2006-05-08 07:11:03 to 2006-05-08 14:51:04
Time Latitude Longitude Heading SOG COG Depth
2006-05-08 07:12:09 51°13.608 2°56.028 103.2 3.7 279 -999
2006-05-08 07:13:09 51°13.631 2°55.926 123.4 4.5 298 -999
2006-05-08 07:14:09 51°13.68 2°55.824 134.1 5.2 311 -999
2006-05-08 07:15:09 51°13.72 2°55.735 118.8 3.4 299 -999
2006-05-08 07:16:08 51°13.729 2°55.719 81.3 1.3 69 11.8
2006-05-08 07:17:09 51°13.728 2°55.713 46.2 0.7 246 -999
2006-05-08 07:18:08 51°13.751 2°55.709 354.2 2.8 347 11.3
2006-05-08 07:19:08 51°13.827 2°55.645 334.4 6.8 331 11.2
2006-05-08 07:20:08 51°13.942 2°55.554 340 8.1 334 11.3
2006-05-08 07:21:08 51°14.056 2°55.471 340.9 7.4 336 11.6
2006-05-08 07:22:08 51°14.187 2°55.367 334.1 9.5 329 11.4
2006-05-08 07:23:08 51°14.306 2°55.181 312 10.7 307 11.4
2006-05-08 07:24:08 51°14.425 2°54.948 319 11.5 318 11.6
2006-05-08 07:25:08 51°14.599 2°54.804 338.2 12.5 335 10.6
2006-05-08 07:26:08 51°14.774 2°54.612 327 12.9 325 10.5
2006-05-08 07:27:08 51°14.955 2°54.423 329.5 12.9 327 10.2
2006-05-08 07:28:08 51°15.14 2°54.245 333.1 13 330 10.1
2006-05-08 07:29:08 51°15.321 2°54.061 332.3 12.9 329 10.7
2006-05-08 07:30:07 51°15.511 2°53.913 338.6 12.9 335 11.3
2006-05-08 07:31:08 51°15.708 2°53.756 336.9 12.9 334 11.9
2006-05-08 07:32:08 51°15.901 2°53.601 336.7 13 334 12.4
2006-05-08 07:33:08 51°16.093 2°53.447 335.6 12.9 332 12.8
2006-05-08 07:34:08 51°16.287 2°53.298 337.5 12.7 335 13.1
2006-05-08 07:35:08 51°16.478 2°53.148 336.3 12.8 334 13.2
2006-05-08 07:36:07 51°16.666 2°52.997 336.2 12.8 333 12.8
2006-05-08 07:37:08 51°16.86 2°52.844 337.5 12.8 335 10.6
2006-05-08 07:38:08 51°17.054 2°52.701 338.6 13 335 11.6
2006-05-08 07:39:08 51°17.254 2°52.578 345.4 12.9 342 11.1
2006-05-08 07:40:07 51°17.456 2°52.464 344.7 13 342 11.7
2006-05-08 07:41:08 51°17.672 2°52.406 359.3 13.1 355 11.8
2006-05-08 07:42:08 51°17.889 2°52.376 1 13.2 357 12
2006-05-08 07:43:08 51°18.107 2°52.349 1.9 13.2 358 12.1
2006-05-08 07:44:08 51°18.326 2°52.355 6.5 13.1 -999 12.5
2006-05-08 07:45:07 51°18.541 2°52.355 4.6 13.1 -999 13
2006-05-08 07:46:07 51°18.761 2°52.355 4 13.2 359 13.8
2006-05-08 07:47:08 51°18.985 2°52.356 4.8 13.2 359 14.7
2006-05-08 07:48:09 51°19.21 2°52.353 4.9 13.3 -999 15.6
2006-05-08 07:49:07 51°19.425 2°52.347 3.8 13.4 359 16.6
2006-05-08 07:50:08 51°19.65 2°52.338 4.7 13.3 359 16.9
2006-05-08 07:51:08 51°19.873 2°52.337 4.8 13.4 -999 17.5
2006-05-08 07:52:08 51°20.097 2°52.333 4.3 13.5 -999 17.5
2006-05-08 07:53:08 51°20.321 2°52.33 4.4 13.5 -999 17.3
2006-05-08 07:54:08 51°20.545 2°52.331 4.7 13.4 -999 15.9
2006-05-08 07:55:08 51°20.769 2°52.335 4.3 13.5 -999 15.7
2006-05-08 07:56:09 51°20.997 2°52.342 5.2 13.4 1 16.3
2006-05-08 07:57:08 51°21.216 2°52.342 5 13.3 -999 18.3
2006-05-08 07:58:09 51°21.443 2°52.345 4.2 13.4 359 20.1
2006-05-08 07:59:08 51°21.662 2°52.346 3.5 13.4 -999 22.6
2006-05-08 08:00:09 51°21.889 2°52.343 3.4 13.4 359 25.2
2006-05-08 08:01:08 51°22.11 2°52.344 3.1 13.4 -999 25.1
2006-05-08 08:02:09 51°22.338 2°52.342 3.4 13.6 359 24.9
2006-05-08 08:03:07 51°22.555 2°52.343 4.7 13.5 2 24.2
2006-05-08 08:04:08 51°22.783 2°52.35 4.7 13.5 2 22.2
2006-05-08 08:05:09 51°23.013 2°52.357 3.6 13.6 -999 24.2
2006-05-08 08:06:08 51°23.237 2°52.362 3.9 13.7 1 22.8
2006-05-08 08:07:09 51°23.47 2°52.37 4.8 13.8 1 21.2
2006-05-08 08:08:09 51°23.7 2°52.378 4 13.9 1 18.5
2006-05-08 08:09:08 51°23.925 2°52.386 3.6 13.8 -999 18.8
2006-05-08 08:10:07 51°24.145 2°52.389 5.3 13.3 3 19
2006-05-08 08:11:09 51°24.373 2°52.396 5 13.3 2 20.6
2006-05-08 08:12:07 51°24.587 2°52.404 4.2 13.3 -999 20.3
2006-05-08 08:13:08 51°24.813 2°52.407 5.3 13.4 3 24
2006-05-08 08:14:07 51°25.031 2°52.411 3.8 13.3 1 25.8
2006-05-08 08:15:07 51°25.254 2°52.415 4.2 13.4 1 25.5
2006-05-08 08:16:08 51°25.477 2°52.48 21 13.6 17 25.1
2006-05-08 08:17:08 51°25.69 2°52.584 21.1 13.5 16 27.4
2006-05-08 08:18:07 51°25.902 2°52.687 21.5 13.7 17 28.6
2006-05-08 08:19:08 51°26.123 2°52.794 21.5 13.7 17 28.6
2006-05-08 08:20:07 51°26.337 2°52.897 19.9 13.7 16 26.7
2006-05-08 08:21:09 51°26.562 2°52.995 20.7 13.5 16 30.6
2006-05-08 08:22:07 51°26.771 2°53.088 20.3 13.6 16 30.4
2006-05-08 08:23:07 51°26.988 2°53.185 19.5 13.6 15 30.6
2006-05-08 08:24:09 51°27.215 2°53.286 20.6 13.6 16 28.7
2006-05-08 08:25:07 51°27.425 2°53.378 19.9 13.6 15 25.6
2006-05-08 08:26:09 51°27.652 2°53.48 19.5 13.7 15 22.3
2006-05-08 08:27:09 51°27.871 2°53.581 20.5 13.8 16 22.7
2006-05-08 08:28:08 51°28.086 2°53.683 20.9 13.8 17 22.4
2006-05-08 08:29:08 51°28.305 2°53.784 20.1 13.5 15 23.1
2006-05-08 08:30:09 51°28.527 2°53.883 20.4 13.5 16 25.6
2006-05-08 08:31:08 51°28.74 2°53.976 20.4 13.5 16 25.9
2006-05-08 08:32:09 51°28.96 2°54.08 21.7 13.4 16 27.1
2006-05-08 08:33:07 51°29.169 2°54.173 20.8 13.4 15 28.2
2006-05-08 08:34:09 51°29.391 2°54.275 21.2 13.2 16 29.5
2006-05-08 08:35:07 51°29.596 2°54.366 19.9 13.4 15 31.1
2006-05-08 08:36:07 51°29.812 2°54.463 19.5 13.4 16 33.1
2006-05-08 08:37:07 51°30.028 2°54.564 20 13.5 16 34.2
2006-05-08 08:38:09 51°30.253 2°54.665 19.4 13.5 15 35.4
2006-05-08 08:39:09 51°30.47 2°54.77 20.4 13.7 18 35.3
2006-05-08 08:40:09 51°30.686 2°54.877 20.3 13.7 17 35.3
2006-05-08 08:41:07 51°30.894 2°54.977 20.7 13.7 20 20.3
2006-05-08 08:42:07 51°31.112 2°55.082 20.7 13.7 16 17.8
2006-05-08 08:43:07 51°31.331 2°55.186 20.1 13.7 16 19.8
2006-05-08 08:44:09 51°31.56 2°55.292 20.3 13.8 16 20.1
2006-05-08 08:45:09 51°31.778 2°55.396 20.5 13.6 19 21.8
2006-05-08 08:46:08 51°31.988 2°55.497 20.4 13.3 16 22.9
2006-05-08 08:47:07 51°32.199 2°55.596 20.3 13.5 15 22.6
2006-05-08 08:48:07 51°32.414 2°55.701 20.7 13.6 17 23.9
2006-05-08 08:49:08 51°32.632 2°55.804 19.8 13.4 16 24.6
2006-05-08 08:50:07 51°32.812 2°55.895 23.2 9.1 19 24.9
2006-05-08 08:51:09 51°32.945 2°55.97 29.9 7.6 27 27.1
2006-05-08 08:52:08 51°33.011 2°56.06 63.7 4 51 26.7
2006-05-08 08:53:09 51°33.045 2°56.124 71.9 2.5 45 26.1
2006-05-08 08:54:09 51°33.071 2°56.157 63.8 1.8 26 27
2006-05-08 08:55:08 51°33.107 2°56.181 26.4 2.9 15 26
2006-05-08 08:56:07 51°33.153 2°56.172 331.7 2.8 341 27.9
2006-05-08 08:57:09 51°33.19 2°56.133 301.3 2.3 314 27.7
2006-05-08 08:58:08 51°33.205 2°56.088 257.1 1.7 283 28.1
2006-05-08 08:59:08 51°33.205 2°56.057 219.2 0.8 250 27.2
2006-05-08 09:00:08 51°33.198 2°56.041 203.3 0.8 233 27.3
2006-05-08 09:01:07 51°33.187 2°56.026 200.5 0.9 214 27.1
2006-05-08 09:02:09 51°33.171 2°56.018 189.4 1 192 26.6
2006-05-08 09:03:09 51°33.157 2°56.019 181 0.9 169 25.9
2006-05-08 09:04:09 51°33.139 2°56.025 179.7 1.5 169 27
2006-05-08 09:05:09 51°33.107 2°56.026 188.8 2.3 181 27.1
2006-05-08 09:06:09 51°33.074 2°56.014 199.9 0.9 201 25.4
2006-05-08 09:07:08 51°33.07 2°56.01 188.4 0.2 188 26.6
2006-05-08 09:08:09 51°33.071 2°56.013 179.2 0.2 64 26.3
2006-05-08 09:09:09 51°33.075 2°56.016 179.2 0.3 41 24.6
2006-05-08 09:10:08 51°33.081 2°56.02 175.6 0.4 49 25
2006-05-08 09:11:09 51°33.087 2°56.025 171.3 0.6 22 25.6
2006-05-08 09:12:09 51°33.096 2°56.028 169.6 0.6 22 26.2
2006-05-08 09:13:09 51°33.104 2°56.031 168 0.5 39 26.8
2006-05-08 09:14:08 51°33.113 2°56.037 161.5 0.6 16 27.2
2006-05-08 09:15:09 51°33.123 2°56.039 165.2 0.7 2 27.4
2006-05-08 09:16:09 51°33.137 2°56.037 173.7 1 358 26.8
2006-05-08 09:17:08 51°33.151 2°56.038 178.4 0.9 5 25.2
2006-05-08 09:18:09 51°33.164 2°56.038 181 0.8 352 26.2
2006-05-08 09:19:08 51°33.176 2°56.039 181.9 0.7 4 26.9
2006-05-08 09:20:09 51°33.187 2°56.041 180.6 0.7 4 26.7
2006-05-08 09:21:09 51°33.199 2°56.042 180.1 0.6 2 27.4
2006-05-08 09:22:08 51°33.21 2°56.045 177.1 0.6 5 27.6
2006-05-08 09:23:08 51°33.22 2°56.05 170.8 0.7 7 28.5
2006-05-08 09:24:09 51°33.213 2°56.073 154.3 3.2 135 27.9
2006-05-08 09:25:09 51°33.14 2°56.198 146.4 8.5 135 28.1
2006-05-08 09:26:09 51°32.999 2°56.376 148.7 11.5 139 27.6
2006-05-08 09:27:08 51°32.843 2°56.566 151.9 12 147 24.5
2006-05-08 09:28:09 51°32.671 2°56.736 156.7 12 147 23.4
2006-05-08 09:29:08 51°32.499 2°56.893 155.4 12.2 148 22.3
2006-05-08 09:30:08 51°32.329 2°57.068 154.9 12.2 145 22.1
2006-05-08 09:31:08 51°32.188 2°57.305 138.4 12.7 128 17.4
2006-05-08 09:32:08 51°32.047 2°57.551 143.2 12.4 132 18.1
2006-05-08 09:33:09 51°31.904 2°57.799 141.9 12.1 137 31.8
2006-05-08 09:34:09 51°31.766 2°58.04 140.4 12.2 134 37.8
2006-05-08 09:35:09 51°31.625 2°58.277 142.2 12.3 132 33.9
2006-05-08 09:36:09 51°31.484 2°58.513 140.9 12.1 134 32.2
2006-05-08 09:37:07 51°31.35 2°58.742 141.7 12.2 132 30.7
2006-05-08 09:38:09 51°31.204 2°58.985 141.7 12.1 134 30
2006-05-08 09:39:08 51°31.069 2°59.218 142.9 12.3 132 29.3
2006-05-08 09:40:09 51°30.928 2°59.46 142.7 12.1 133 29.9
2006-05-08 09:41:08 51°30.792 2°59.694 142.8 12.3 133 27.9
2006-05-08 09:42:07 51°30.652 2°59.928 142.8 12.4 135 28.7
2006-05-08 09:43:09 51°30.505 3°0.174 143.1 12.6 133 27.8
2006-05-08 09:44:07 51°30.369 3°0.407 141.8 12.4 134 28.7
2006-05-08 09:45:08 51°30.223 3°0.652 142.9 12.5 132 29.6
2006-05-08 09:46:08 51°30.075 3°0.883 144.2 12.3 137 30.1
2006-05-08 09:47:08 51°29.926 3°1.112 143.7 12.3 137 30.2
2006-05-08 09:48:07 51°29.78 3°1.335 146 12.3 133 29.5
2006-05-08 09:49:08 51°29.634 3°1.565 142.8 12.2 131 29
2006-05-08 09:50:08 51°29.493 3°1.794 145.1 12 134 27.5
2006-05-08 09:51:09 51°29.346 3°2.023 144.6 12.3 136 25.9
2006-05-08 09:52:07 51°29.209 3°2.246 145.3 12.4 134 24.2
2006-05-08 09:53:08 51°29.061 3°2.477 145.1 12.3 137 24.4
2006-05-08 09:54:07 51°28.916 3°2.703 145.6 12.5 136 24.8
2006-05-08 09:55:09 51°28.762 3°2.941 144.4 12.4 136 25.3
2006-05-08 09:56:07 51°28.617 3°3.159 145.6 12.4 144 25.2
2006-05-08 09:57:08 51°28.446 3°3.352 154.1 12.2 144 25.2
2006-05-08 09:58:08 51°28.292 3°3.523 153.8 9 138 24.3
2006-05-08 09:59:09 51°28.24 3°3.624 121.7 2.2 88 23.6
2006-05-08 10:00:08 51°28.252 3°3.677 80.2 2.4 63 23.5
2006-05-08 10:01:08 51°28.282 3°3.735 48.2 2.9 43 23.6
2006-05-08 10:02:09 51°28.323 3°3.771 7.9 2.6 19 23.9
2006-05-08 10:03:09 51°28.361 3°3.775 325.7 2.1 355 23.9
2006-05-08 10:04:09 51°28.386 3°3.76 279.7 1.2 325 24.4
2006-05-08 10:05:09 51°28.392 3°3.743 236.3 0.4 255 24.2
2006-05-08 10:06:09 51°28.383 3°3.736 213.7 0.7 188 24.2
2006-05-08 10:07:08 51°28.368 3°3.734 202.6 1 178 24.1
2006-05-08 10:08:09 51°28.348 3°3.74 191.1 1.4 157 23.9
2006-05-08 10:09:09 51°28.328 3°3.762 176.3 1.6 144 23.9
2006-05-08 10:10:09 51°28.307 3°3.791 170.7 1.8 133 23.6
2006-05-08 10:11:09 51°28.29 3°3.835 145.7 2.2 112 23.3
2006-05-08 10:12:09 51°28.293 3°3.922 83.1 4 67 23.1
2006-05-08 10:13:08 51°28.348 3°3.986 6.9 4.1 13 23.2
2006-05-08 10:14:09 51°28.401 3°3.952 298.3 3.4 312 23.7
2006-05-08 10:15:09 51°28.4 3°3.854 246 4.5 246 24
2006-05-08 10:16:09 51°28.354 3°3.736 243 5.7 242 24.1
2006-05-08 10:17:09 51°28.306 3°3.609 228.3 5.6 229 24
2006-05-08 10:18:09 51°28.262 3°3.546 227.9 1 230 24.1
2006-05-08 10:19:09 51°28.259 3°3.536 227.8 0.3 265 24.1
2006-05-08 10:20:09 51°28.263 3°3.534 229.9 0.4 359 24.1
2006-05-08 10:21:08 51°28.272 3°3.537 231.7 0.7 8 24.2
2006-05-08 10:22:09 51°28.284 3°3.543 231.7 0.8 16 24.2
2006-05-08 10:23:08 51°28.295 3°3.549 233.6 0.8 17 24.3
2006-05-08 10:24:09 51°28.308 3°3.557 232.7 0.8 22 24.4
2006-05-08 10:25:09 51°28.321 3°3.566 233.2 0.8 22 24.4
2006-05-08 10:26:09 51°28.336 3°3.576 235.1 1 19 24.5
2006-05-08 10:27:08 51°28.351 3°3.587 233.6 1.1 25 24.4
2006-05-08 10:28:09 51°28.369 3°3.599 237 1.2 27 24.4
2006-05-08 10:29:09 51°28.386 3°3.608 241.2 1.2 17 24.5
2006-05-08 10:30:09 51°28.402 3°3.616 241.7 1 10 24.4
2006-05-08 10:31:07 51°28.416 3°3.609 260.2 1.5 303 24.8
2006-05-08 10:32:09 51°28.467 3°3.57 339.3 4.9 358 24.7
2006-05-08 10:33:09 51°28.537 3°3.667 78.5 6.1 71 24.9
2006-05-08 10:34:09 51°28.495 3°3.87 136 10.1 123 24.4
2006-05-08 10:35:09 51°28.378 3°4.142 136.1 13.1 127 22.8
2006-05-08 10:36:09 51°28.242 3°4.411 137.5 12.9 131 20.7
2006-05-08 10:37:09 51°28.113 3°4.683 135 12.8 128 18.3
2006-05-08 10:38:08 51°27.996 3°4.959 134.2 12.7 126 16.6
2006-05-08 10:39:09 51°27.867 3°5.238 134.8 12.5 127 16.5
2006-05-08 10:40:09 51°27.741 3°5.506 135.4 12.5 129 17
2006-05-08 10:41:08 51°27.62 3°5.775 134.4 12.5 127 16.3
2006-05-08 10:42:09 51°27.491 3°6.052 135.6 12.6 126 15.9
2006-05-08 10:43:09 51°27.364 3°6.328 133.7 12.6 127 15.5
2006-05-08 10:44:08 51°27.243 3°6.605 135.5 13 121 15
2006-05-08 10:45:08 51°27.119 3°6.882 137.1 12.9 125 14.1
2006-05-08 10:46:09 51°26.99 3°7.159 136.5 12.7 126 13.7
2006-05-08 10:47:09 51°26.865 3°7.431 134.2 12.7 125 13
2006-05-08 10:48:09 51°26.742 3°7.708 131.8 12.9 122 12.5
2006-05-08 10:49:08 51°26.628 3°7.99 131.4 12.7 128 12.1
2006-05-08 10:50:09 51°26.512 3°8.269 133.5 10.1 124 12.4
2006-05-08 10:51:09 51°26.447 3°8.379 163.4 3.4 144 12.5
2006-05-08 10:52:09 51°26.411 3°8.438 149.3 3.2 125 12.4
2006-05-08 10:53:09 51°26.391 3°8.498 147.5 2.1 110 12.4
2006-05-08 10:54:08 51°26.385 3°8.546 138.5 2 97 12.2
2006-05-08 10:55:08 51°26.389 3°8.606 107.6 2.5 73 12.2
2006-05-08 10:56:08 51°26.412 3°8.666 70.1 2.7 48 12.2
2006-05-08 10:57:07 51°26.445 3°8.707 37.1 2.6 29 12.4
2006-05-08 10:58:07 51°26.484 3°8.73 6.2 2.4 11 12.5
2006-05-08 10:59:08 51°26.522 3°8.734 334.5 2 356 12.7
2006-05-08 11:00:08 51°26.552 3°8.723 301 1.7 340 12.8
2006-05-08 11:01:08 51°26.572 3°8.704 267 1.1 317 13
2006-05-08 11:02:07 51°26.579 3°8.685 230.7 0.7 268 12.9
2006-05-08 11:03:08 51°26.564 3°8.653 219.8 2.8 222 12.8
2006-05-08 11:04:08 51°26.524 3°8.564 236.2 4.9 237 12.8
2006-05-08 11:05:07 51°26.486 3°8.464 235.9 3.4 240 12.6
2006-05-08 11:06:09 51°26.477 3°8.427 240.1 0.7 315 12.4
2006-05-08 11:07:07 51°26.488 3°8.416 255.4 0.9 332 12.5
2006-05-08 11:08:09 51°26.504 3°8.407 264.3 1 340 12.5
2006-05-08 11:09:08 51°26.52 3°8.4 266.7 1.2 347 12.4
2006-05-08 11:10:07 51°26.537 3°8.395 266.3 1.1 352 12.6
2006-05-08 11:11:08 51°26.555 3°8.392 264.9 1.1 355 12.6
2006-05-08 11:12:08 51°26.572 3°8.391 262.5 1 1 12.5
2006-05-08 11:13:08 51°26.59 3°8.39 262.2 1.1 359 12.8
2006-05-08 11:14:08 51°26.608 3°8.39 261.2 1 -999 12.9
2006-05-08 11:15:08 51°26.625 3°8.39 260.5 1 -999 13.1
2006-05-08 11:16:08 51°26.643 3°8.391 260.1 1.1 2 13
2006-05-08 11:17:08 51°26.662 3°8.389 259.8 1.1 334 13
2006-05-08 11:18:08 51°26.65 3°8.364 200.8 2.6 188 12.8
2006-05-08 11:19:08 51°26.594 3°8.457 126.2 8 110 12.5
2006-05-08 11:20:08 51°26.544 3°8.727 119.6 11.8 115 12.6
2006-05-08 11:21:08 51°26.448 3°9.006 126.2 12 119 11.6
2006-05-08 11:22:08 51°26.346 3°9.288 127.2 12.3 119 10.7
2006-05-08 11:23:08 51°26.237 3°9.57 128.5 12.5 122 10.5
2006-05-08 11:24:09 51°26.126 3°9.855 128.7 12.4 121 9.9
2006-05-08 11:25:09 51°26.015 3°10.134 128.5 12.5 123 9.4
2006-05-08 11:26:08 51°25.909 3°10.408 127.1 12.3 121 9.3
2006-05-08 11:27:08 51°25.798 3°10.686 126 12.4 123 9.1
2006-05-08 11:28:07 51°25.711 3°10.979 118.2 12.6 110 8.9
2006-05-08 11:29:09 51°25.639 3°11.309 113.2 12.7 108 9.7
2006-05-08 11:30:07 51°25.569 3°11.617 115 12.9 110 10.2
2006-05-08 11:31:07 51°25.509 3°11.945 103.1 12.9 97 10.8
2006-05-08 11:32:08 51°25.518 3°12.298 89.3 13 86 10.7
2006-05-08 11:33:08 51°25.517 3°12.641 94.3 12.8 90 10.6
2006-05-08 11:34:09 51°25.52 3°12.987 94.5 12.7 90 10.7
2006-05-08 11:35:08 51°25.542 3°13.319 88.7 12.9 85 10.5
2006-05-08 11:36:08 51°25.561 3°13.659 89.8 12.8 84 10.4
2006-05-08 11:37:07 51°25.579 3°13.993 89.1 12.8 84 10.1
2006-05-08 11:38:08 51°25.599 3°14.336 89.5 12.7 84 9.7
2006-05-08 11:39:08 51°25.618 3°14.673 90.5 12.6 85 9.7
2006-05-08 11:40:09 51°25.636 3°15.015 89.2 12.7 86 9.6
2006-05-08 11:41:09 51°25.657 3°15.352 87 12.8 82 9.6
2006-05-08 11:42:08 51°25.678 3°15.684 89.8 12.6 87 9.7
2006-05-08 11:43:08 51°25.693 3°16.02 93.9 12.6 92 9.7
2006-05-08 11:44:08 51°25.683 3°16.353 95.8 12.5 92 9.8
2006-05-08 11:45:08 51°25.685 3°16.687 88.4 12.7 82 9.9
2006-05-08 11:46:08 51°25.709 3°17.019 89.8 12.6 85 10
2006-05-08 11:47:08 51°25.739 3°17.352 85.2 12.7 80 10.1
2006-05-08 11:48:08 51°25.772 3°17.685 86.8 12.7 81 10.2
2006-05-08 11:49:09 51°25.798 3°17.936 85.9 6.7 77 10.6
2006-05-08 11:50:07 51°25.811 3°18.045 100 2.9 84 10.6
2006-05-08 11:51:08 51°25.823 3°18.111 82.6 2.4 63 10.7
2006-05-08 11:52:08 51°25.852 3°18.154 48.5 2.4 31 10.6
2006-05-08 11:53:09 51°25.892 3°18.173 17.3 2.5 6 10.5
2006-05-08 11:54:09 51°25.934 3°18.166 345.5 2.5 344 10.4
2006-05-08 11:55:08 51°25.967 3°18.136 312.8 2.3 323 10.3
2006-05-08 11:56:09 51°25.991 3°18.095 283.3 1.9 305 10.1
2006-05-08 11:57:09 51°26.004 3°18.05 261.5 1.8 287 10.3
2006-05-08 11:58:07 51°26.009 3°18.003 243 1.9 270 10.1
2006-05-08 11:59:08 51°26.003 3°17.958 221.8 1.5 247 10.2
2006-05-08 12:00:08 51°25.987 3°17.931 191.7 1.4 201 10
2006-05-08 12:01:09 51°25.955 3°17.929 174 2.7 177 10
2006-05-08 12:02:08 51°25.921 3°17.922 195.3 0.7 236 10.3
2006-05-08 12:03:09 51°25.926 3°17.908 218.4 0.9 310 10.1
2006-05-08 12:04:08 51°25.937 3°17.893 243.8 1.1 324 10.1
2006-05-08 12:05:08 51°25.952 3°17.877 267.8 1.2 330 10.1
2006-05-08 12:06:08 51°25.969 3°17.862 282.4 1.3 334 10.1
2006-05-08 12:07:08 51°25.987 3°17.848 288.6 1.2 333 9.9
2006-05-08 12:08:09 51°26.005 3°17.833 288 1.2 331 9.8
2006-05-08 12:09:09 51°26.023 3°17.816 283.3 1.3 331 9.9
2006-05-08 12:10:07 51°26.04 3°17.8 279.2 1.2 331 9.8
2006-05-08 12:11:07 51°26.058 3°17.784 274.2 1.3 331 9.7
2006-05-08 12:12:09 51°26.076 3°17.766 270.1 1.2 327 9.8
2006-05-08 12:13:09 51°26.093 3°17.749 266.6 1.2 329 9.8
2006-05-08 12:14:07 51°26.11 3°17.732 265.6 1.3 330 9.5
2006-05-08 12:15:08 51°26.11 3°17.676 228.7 3.9 234 9.6
2006-05-08 12:16:09 51°25.991 3°17.571 199.3 10.7 199 9.5
2006-05-08 12:17:09 51°25.803 3°17.485 195.1 12.2 196 9.6
2006-05-08 12:18:09 51°25.614 3°17.387 197.1 11.9 196 10.5
2006-05-08 12:19:09 51°25.424 3°17.294 198.6 11.9 198 10.8
2006-05-08 12:20:09 51°25.236 3°17.204 199.8 11.7 197 12.1
2006-05-08 12:21:09 51°25.047 3°17.111 200.2 12 199 14.5
2006-05-08 12:22:09 51°24.855 3°17.009 200.7 12.1 200 16.4
2006-05-08 12:23:09 51°24.66 3°16.913 196.6 12.2 197 18.7
2006-05-08 12:24:09 51°24.474 3°16.778 213.2 12.3 215 19.1
2006-05-08 12:25:09 51°24.333 3°16.532 229.7 12.6 229 16.4
2006-05-08 12:26:09 51°24.193 3°16.275 230.7 12.7 229 14.1
2006-05-08 12:27:09 51°24.054 3°16.02 229.4 12.8 230 13.8
2006-05-08 12:28:09 51°23.916 3°15.763 231.7 12.7 230 13.2
2006-05-08 12:29:09 51°23.778 3°15.509 230.6 12.6 229 12.4
2006-05-08 12:30:07 51°23.645 3°15.264 232.2 12.6 230 11.8
2006-05-08 12:31:09 51°23.502 3°15.003 230.1 12.6 228 10.9
2006-05-08 12:32:09 51°23.379 3°14.731 236.1 12.6 234 10.4
2006-05-08 12:33:09 51°23.262 3°14.454 244.1 12.6 243 10.4
2006-05-08 12:34:07 51°23.186 3°14.173 256.9 10.5 256 11.2
2006-05-08 12:35:09 51°23.142 3°13.925 252.4 8.7 252 11.5
2006-05-08 12:36:09 51°23.103 3°13.749 250.4 5.9 252 11.8
2006-05-08 12:37:08 51°23.07 3°13.625 237.6 4.9 238 12.1
2006-05-08 12:38:09 51°22.964 3°13.519 212.3 9.3 212 11.9
2006-05-08 12:39:09 51°22.821 3°13.382 214.9 10.3 214 12.1
2006-05-08 12:40:08 51°22.678 3°13.246 210.5 9.5 210 12.7
2006-05-08 12:41:09 51°22.603 3°13.159 209.4 1.5 232 13.2
2006-05-08 12:42:10 51°22.605 3°13.137 202.5 1.7 225 4.8
2006-05-08 12:43:09 51°22.581 3°13.123 164.6 1.6 172 13.3
2006-05-08 12:44:09 51°22.569 3°13.158 101.7 1.8 83 13.3
2006-05-08 12:45:09 51°22.591 3°13.2 50.1 2.2 29 13.1
2006-05-08 12:46:07 51°22.627 3°13.207 9 2.4 351 13
2006-05-08 12:47:08 51°22.662 3°13.177 328.6 2.3 317 13
2006-05-08 12:48:08 51°22.684 3°13.128 295.9 2.1 298 13
2006-05-08 12:49:09 51°22.694 3°13.078 268.5 1.9 283 13.1
2006-05-08 12:50:09 51°22.697 3°13.033 249.4 1.6 269 13.2
2006-05-08 12:51:08 51°22.694 3°12.993 233 1.4 259 13.2
2006-05-08 12:52:07 51°22.688 3°12.958 218 1.4 249 13.3
2006-05-08 12:53:07 51°22.663 3°12.934 174.1 2.2 178 13.4
2006-05-08 12:54:07 51°22.639 3°12.984 107.2 3.4 101 13.4
2006-05-08 12:55:09 51°22.63 3°13.041 117.9 0.3 8 13.3
2006-05-08 12:56:08 51°22.637 3°13.04 112.8 0.5 343 13.2
2006-05-08 12:57:08 51°22.645 3°13.033 103.6 0.6 326 13.2
2006-05-08 12:58:07 51°22.654 3°13.021 95.7 0.8 321 13.2
2006-05-08 12:59:09 51°22.664 3°13.004 86.8 1 312 13.2
2006-05-08 13:00:07 51°22.674 3°12.984 77.3 1 310 13.1
2006-05-08 13:01:09 51°22.685 3°12.962 72.4 1.1 309 13.1
2006-05-08 13:02:09 51°22.695 3°12.941 70.7 1.1 310 13
2006-05-08 13:03:09 51°22.706 3°12.921 72.9 1 309 13.1
2006-05-08 13:04:08 51°22.716 3°12.9 76.2 1.1 309 13.2
2006-05-08 13:05:09 51°22.725 3°12.878 77.6 1 303 13.2
2006-05-08 13:06:07 51°22.734 3°12.857 78.9 1 300 13.3
2006-05-08 13:07:08 51°22.743 3°12.834 80 1 301 13.2
2006-05-08 13:08:09 51°22.752 3°12.815 77 0.8 324 13.2
2006-05-08 13:09:07 51°22.773 3°12.831 53.1 3 35 13.2
2006-05-08 13:10:09 51°22.857 3°12.817 340.2 6.4 329 12.8
2006-05-08 13:11:08 51°22.884 3°12.642 255.6 7.9 252 12.7
2006-05-08 13:12:09 51°22.831 3°12.382 251.6 12.2 250 13.5
2006-05-08 13:13:09 51°22.762 3°12.05 252 13.3 251 13.9
2006-05-08 13:14:09 51°22.691 3°11.713 250.9 13.4 252 14.3
2006-05-08 13:15:08 51°22.603 3°11.393 243.1 13.4 243 15.2
2006-05-08 13:16:07 51°22.51 3°11.074 245.3 13.5 245 15.8
2006-05-08 13:17:07 51°22.41 3°10.752 245.5 13.5 244 16.4
2006-05-08 13:18:07 51°22.326 3°10.424 257.6 13.4 257 18.5
2006-05-08 13:19:09 51°22.277 3°10.059 257 13.6 256 14.3
2006-05-08 13:20:07 51°22.234 3°9.715 260.7 13.7 259 13.6
2006-05-08 13:21:09 51°22.178 3°9.351 257.2 13.6 257 13.1
2006-05-08 13:22:09 51°22.132 3°8.994 259.8 13.7 259 12.6
2006-05-08 13:23:07 51°22.088 3°8.651 260.1 13.6 259 12.3
2006-05-08 13:24:09 51°22.036 3°8.286 259.8 13.7 258 12.1
2006-05-08 13:25:07 51°21.987 3°7.946 260.5 13.7 259 11.8
2006-05-08 13:26:07 51°21.956 3°7.588 263.1 13.6 261 11.9
2006-05-08 13:27:07 51°21.933 3°7.228 263.8 13.6 260 11.8
2006-05-08 13:28:07 51°21.888 3°6.875 254.6 13.5 251 11.7
2006-05-08 13:29:09 51°21.799 3°6.533 247.6 13.6 246 11.4
2006-05-08 13:30:08 51°21.718 3°6.204 247.5 13.6 248 11.2
2006-05-08 13:31:07 51°21.64 3°5.873 248.8 13.5 249 11
2006-05-08 13:32:09 51°21.55 3°5.532 247.3 13.5 248 10.8
2006-05-08 13:33:09 51°21.473 3°5.196 250.8 13.4 248 10.8
2006-05-08 13:34:07 51°21.395 3°4.875 252.9 13.4 254 10.6
2006-05-08 13:35:07 51°21.317 3°4.543 248.2 13.4 248 10.5
2006-05-08 13:36:07 51°21.239 3°4.211 249.2 13.2 249 10.5
2006-05-08 13:37:09 51°21.166 3°3.864 248.9 13.2 248 10.3
2006-05-08 13:38:09 51°21.082 3°3.539 250.8 13.2 249 10.3
2006-05-08 13:39:07 51°21.007 3°3.221 250.7 13.3 250 10.1
2006-05-08 13:40:08 51°20.926 3°2.884 251.1 13.5 251 10
2006-05-08 13:41:09 51°20.843 3°2.546 251.2 13.5 250 10
2006-05-08 13:42:08 51°20.758 3°2.224 249 13.3 246 9.9
2006-05-08 13:43:09 51°20.677 3°1.888 248.9 13.3 248 9.8
2006-05-08 13:44:09 51°20.595 3°1.558 249.6 13.5 250 9.7
2006-05-08 13:45:08 51°20.517 3°1.231 251.3 13.3 251 9.9
2006-05-08 13:46:08 51°20.438 3°0.902 252.1 13.3 251 9.6
2006-05-08 13:47:08 51°20.36 3°0.573 251.5 13.3 252 9.7
2006-05-08 13:48:07 51°20.28 3°0.252 251.8 13.3 252 9.6
2006-05-08 13:49:08 51°20.2 2°59.916 249.6 13.3 248 9.6
2006-05-08 13:50:08 51°20.118 2°59.588 251.7 13.4 251 9.7
2006-05-08 13:51:08 51°20.036 2°59.257 249.6 13.4 250 9.6
2006-05-08 13:52:07 51°19.958 2°58.931 251.1 13.3 250 9.7
2006-05-08 13:53:07 51°19.874 2°58.607 249.2 13.2 249 9.6
2006-05-08 13:54:08 51°19.794 2°58.274 248.2 13.3 249 9.7
2006-05-08 13:55:08 51°19.715 2°57.945 248.2 13.3 248 9.9
2006-05-08 13:56:09 51°19.638 2°57.608 250.4 13.3 249 9.9
2006-05-08 13:57:09 51°19.555 2°57.278 252 13.5 250 10.1
2006-05-08 13:58:09 51°19.47 2°56.947 248.3 13.4 245 10.2
2006-05-08 13:59:09 51°19.385 2°56.616 251.4 13.4 250 10.2
2006-05-08 14:00:09 51°19.299 2°56.285 251.1 13.6 250 10.4
2006-05-08 14:01:09 51°19.221 2°55.951 251.4 13.5 249 10.6
2006-05-08 14:02:09 51°19.142 2°55.619 251.1 13.3 249 10.7
2006-05-08 14:03:09 51°19.066 2°55.284 252.3 13.3 251 11
2006-05-08 14:04:09 51°18.987 2°54.95 249.9 13.6 250 11
2006-05-08 14:05:08 51°18.906 2°54.624 248.2 13.4 245 11
2006-05-08 14:06:09 51°18.828 2°54.283 250.5 13.4 249 11
2006-05-08 14:07:09 51°18.75 2°53.948 250.4 13.5 248 11
2006-05-08 14:08:09 51°18.674 2°53.613 250.7 13.4 248 11.1
2006-05-08 14:09:09 51°18.595 2°53.28 251.8 13.4 249 11.1
2006-05-08 14:10:08 51°18.51 2°52.957 244.9 13.4 246 11
2006-05-08 14:11:09 51°18.4 2°52.643 240.3 13.3 240 10.9
2006-05-08 14:12:09 51°18.258 2°52.373 225.6 13.4 222 10.6
2006-05-08 14:13:09 51°18.077 2°52.188 200.9 12.6 200 10.4
2006-05-08 14:14:08 51°17.869 2°52.158 180.2 12.7 180 10.1
2006-05-08 14:15:08 51°17.653 2°52.151 180.1 12.8 181 10
2006-05-08 14:16:08 51°17.447 2°52.226 159.5 12.8 158 10.1
2006-05-08 14:17:08 51°17.245 2°52.331 160.4 12.6 162 10
2006-05-08 14:18:08 51°17.043 2°52.436 160.3 12.7 162 9.4
2006-05-08 14:19:09 51°16.837 2°52.545 159 12.8 161 9.4
2006-05-08 14:20:08 51°16.642 2°52.657 159.7 12.8 160 10.6
2006-05-08 14:21:08 51°16.444 2°52.767 160 12.6 161 11.4
2006-05-08 14:22:08 51°16.248 2°52.878 160 12.5 162 11.6
2006-05-08 14:23:08 51°16.055 2°53.004 150.8 12.3 149 11.5
2006-05-08 14:24:09 51°15.869 2°53.164 150.1 12.5 151 11
2006-05-08 14:25:08 51°15.687 2°53.319 151 12.7 153 10.4
2006-05-08 14:26:08 51°15.506 2°53.485 144.5 12.3 147 9.9
2006-05-08 14:27:08 51°15.334 2°53.67 141.1 12.6 143 9.4
2006-05-08 14:28:09 51°15.17 2°53.875 140.6 12.2 142 8.8
2006-05-08 14:29:08 51°15.01 2°54.075 139 12.1 141 8.4
2006-05-08 14:30:08 51°14.846 2°54.278 140.4 12.6 146 8.6
2006-05-08 14:31:07 51°14.684 2°54.474 140.7 12.7 143 9.1
2006-05-08 14:32:08 51°14.536 2°54.684 130.9 11.3 131 9.5
2006-05-08 14:33:09 51°14.415 2°54.921 125.2 11.4 126 9.6
2006-05-08 14:34:09 51°14.317 2°55.157 127.3 9.6 126 9.7
2006-05-08 14:35:08 51°14.226 2°55.317 136.9 8.2 136 9.7
2006-05-08 14:36:08 51°14.127 2°55.417 159.3 5.7 156 9.7
2006-05-08 14:37:09 51°14.052 2°55.468 159.6 4.3 158 9.7
2006-05-08 14:38:10 51°13.989 2°55.514 157.5 4 154 9.6
2006-05-08 14:39:10 51°13.925 2°55.555 158.7 4.6 157 9.6
2006-05-08 14:40:09 51°13.848 2°55.605 158.3 5.4 157 9.7
2006-05-08 14:41:10 51°13.772 2°55.682 139.5 5.4 138 9.7
2006-05-08 14:42:10 51°13.711 2°55.784 130.1 5.1 128 10
2006-05-08 14:43:09 51°13.667 2°55.883 129.1 4.4 126 8.5
2006-05-08 14:44:09 51°13.632 2°55.967 123.3 3.4 119 8.5
2006-05-08 14:45:10 51°13.613 2°56.04 111.6 2.5 107 8.5
2006-05-08 14:46:09 51°13.606 2°56.087 113.3 0.7 100 5.4
2006-05-08 14:47:08 51°13.603 2°56.097 118.3 0.1 156 5
2006-05-08 14:48:09 51°13.603 2°56.099 118.2 -999 315 5
2006-05-08 14:49:11 51°13.603 2°56.099 126.2 -999 94 4.9
2006-05-08 14:50:14 51°13.603 2°56.098 125.7 -999 356 -999